Myrtle Beach International Airport Myrtle Beach US
ICAO: KMYR
IATA: MYR
Category: Large
Scheduled Services: Yes

Elevation: 25 ft
TransAlt. 18000 ft.

Airport Communications:
APP/DEP:119.2
ATIS:123.925
AWOS 3:124.5
CLNC DEL:119.7
CTAF:128.45
GND:120.3
TWR:128.45
UNICOM:122.95

KMYR Zoom In..

If you have problems with the map follow the link
https://www.worldairports.se/pages/airport.php?
ICAO=KMYR

Runways:

(A) RW 18 length 9503 ft width 150 ft
ILS 109.50 / hdg 174

(B) RW 36 length 9503 ft width 150 ft
ILS 111.90 / hdg 354

Location; KMYR
Day. 21 / Time. 17.56 Zulu
* Altimeter: 30.17
* Temperature: 16° c. 60.8°f.
* Wind from: 010° Speed 16 kn.
Dewpoint: -01° c.
Visibility: 10 Statute Miles.
Clouds: Clear (automated report).

KMYR 211756Z 01016KT 10SM CLR 16/M01 A3017 RMK AO2 SLP215 T01611006 10161 20122 58009


Wind From 010°
Speed 16 kn.

 
 
jpsmedia.com for Web Design worldairports.se 2018   terms of use